Time;durP1;ratioP1;P1;durP2;ratioP2;P2;SDS_P1;SDS_P2;PMS_P1;PMS_P2;Temp;Humidity;BMP_temperature;BMP_pressure;BME280_temperature;BME280_humidity;BME280_pressure;Samples;Min_cycle;Max_cycle;Signal;HPM_P1;HPM_P2
2023/04/13 00:02:10;;;;;;;;;;;;;;;9.94;83.53;99060.16;7362741;19;19931;-64
2023/04/13 00:04:37;;;;;;;;;;;;;;;9.93;83.27;99070.84;7360978;19;19915;-65
2023/04/13 00:07:04;;;;;;;;;;;;;;;9.93;83.66;99076.09;7356246;19;19907;-64
2023/04/13 00:09:32;;;;;;;;;;;;;;;9.92;83.30;99077.91;7361004;19;19919;-64
2023/04/13 00:11:59;;;;;;;;;;;;;;;9.94;82.72;99081.16;7362870;19;19926;-64
2023/04/13 00:14:26;;;;;;;;;;;;;;;9.95;82.93;99076.72;7357166;19;20383;-64
2023/04/13 00:16:53;;;;;;;;;;;;;;;9.99;83.42;99089.28;7358387;19;19923;-65
2023/04/13 00:19:20;;;;;;;;;;;;;;;10.06;83.32;99089.31;7358271;19;20150;-64
2023/04/13 00:21:47;;;;;;;;;;;;;;;10.08;83.30;99089.94;7358599;19;19914;-64
2023/04/13 00:24:14;;;;;;;;;;;;;;;10.09;83.01;99092.38;7358374;19;20171;-64
2023/04/13 00:26:41;;;;;;;;;;;;;;;10.10;83.19;99095.81;7353625;19;20280;-65
2023/04/13 00:29:09;;;;;;;;;;;;;;;10.08;83.38;99106.53;7361210;19;19943;-64
2023/04/13 00:31:36;;;;;;;;;;;;;;;10.08;83.00;99108.34;7360672;19;20360;-64
2023/04/13 00:34:03;;;;;;;;;;;;;;;10.03;81.33;99118.59;7356314;19;19922;-64
2023/04/13 00:36:30;;;;;;;;;;;;;;;10.03;82.42;99118.59;7358142;19;19955;-66
2023/04/13 00:38:57;;;;;;;;;;;;;;;10.05;82.47;99125.31;7358593;19;20520;-65
2023/04/13 00:41:25;;;;;;;;;;;;;;;10.08;82.84;99135.44;7360009;19;19927;-64
2023/04/13 00:43:52;;;;;;;;;;;;;;;10.09;82.98;99130.97;7358028;19;19951;-64
2023/04/13 00:46:20;;;;;;;;;;;;;;;10.05;82.67;99124.50;7353065;19;19919;-65
2023/04/13 00:48:47;;;;;;;;;;;;;;;10.06;82.02;99126.09;7357031;19;19918;-64
2023/04/13 00:51:15;;;;;;;;;;;;;;;10.10;82.96;99130.00;7357129;19;20582;-64
2023/04/13 00:53:42;;;;;;;;;;;;;;;10.12;83.02;99125.34;7356482;19;19939;-65
2023/04/13 00:56:09;;;;;;;;;;;;;;;10.08;82.70;99135.44;7353033;19;19922;-65
2023/04/13 00:58:36;;;;;;;;;;;;;;;10.06;83.04;99140.03;7355872;19;20199;-63
2023/04/13 01:01:04;;;;;;;;;;;;;;;10.06;82.58;99137.41;7355340;19;20327;-65
2023/04/13 01:03:31;;;;;;;;;;;;;;;10.06;81.81;99141.84;7353103;19;20243;-64
2023/04/13 01:05:58;;;;;;;;;;;;;;;10.05;81.62;99141.06;7351642;19;19915;-63
2023/04/13 01:08:30;;;;;;;;;;;;;;;10.03;81.03;99143.06;7357449;19;20010;-64
2023/04/13 01:10:58;;;;;;;;;;;;;;;10.05;81.17;99146.34;7354164;19;19914;-63
2023/04/13 01:13:29;;;;;;;;;;;;;;;10.03;81.04;99153.59;7356849;19;19943;-65
2023/04/13 01:16:01;;;;;;;;;;;;;;;9.98;80.55;99145.47;7353660;19;19918;-65
2023/04/13 01:18:29;;;;;;;;;;;;;;;9.95;80.21;99150.28;7357326;19;19922;-66
2023/04/13 01:20:56;;;;;;;;;;;;;;;9.97;80.37;99156.16;7357145;19;19915;-64
2023/04/13 01:23:30;;;;;;;;;;;;;;;9.97;79.47;99156.16;7356534;19;20023;-65
2023/04/13 01:25:59;;;;;;;;;;;;;;;9.95;78.79;99156.34;7355779;19;19956;-65
2023/04/13 01:28:26;;;;;;;;;;;;;;;9.93;78.99;99158.34;7355290;19;21445;-65
2023/04/13 01:30:54;;;;;;;;;;;;;;;9.92;79.48;99167.22;7353359;19;19932;-64
2023/04/13 01:33:21;;;;;;;;;;;;;;;9.94;79.15;99165.22;7352810;19;19928;-63
2023/04/13 01:35:50;;;;;;;;;;;;;;;9.97;79.37;99171.91;7350891;19;19914;-64
2023/04/13 01:38:23;;;;;;;;;;;;;;;9.98;78.16;99178.78;7355277;19;19926;-64
2023/04/13 01:40:50;;;;;;;;;;;;;;;10.01;78.37;99178.41;7355810;19;19918;-64
2023/04/13 01:43:18;;;;;;;;;;;;;;;9.98;78.16;99187.50;7353225;19;19926;-64
2023/04/13 01:45:48;;;;;;;;;;;;;;;10.04;78.38;99191.19;7351657;19;19911;-64
2023/04/13 01:48:17;;;;;;;;;;;;;;;10.03;78.15;99190.38;7351447;19;20735;-64
2023/04/13 01:50:47;;;;;;;;;;;;;;;10.02;77.88;99180.84;7352952;19;19919;-64
2023/04/13 01:53:16;;;;;;;;;;;;;;;9.99;77.89;99183.06;7356571;19;19918;-64
2023/04/13 01:55:43;;;;;;;;;;;;;;;9.95;78.13;99190.50;7350230;19;19929;-64
2023/04/13 01:58:12;;;;;;;;;;;;;;;9.92;78.94;99201.38;7354932;19;20291;-65
2023/04/13 02:00:40;;;;;;;;;;;;;;;9.94;78.37;99216.97;7356434;19;19918;-63
2023/04/13 02:03:08;;;;;;;;;;;;;;;9.91;78.24;99214.69;7355228;19;19915;-64
2023/04/13 02:05:35;;;;;;;;;;;;;;;9.92;79.51;99211.88;7352188;19;19933;-64
2023/04/13 02:08:04;;;;;;;;;;;;;;;9.94;78.63;99209.09;7354923;19;19982;-65
2023/04/13 02:10:32;;;;;;;;;;;;;;;9.89;77.61;99222.78;7354873;19;19919;-64
2023/04/13 02:13:03;;;;;;;;;;;;;;;9.91;78.62;99225.19;7354216;19;19925;-64
2023/04/13 02:15:34;;;;;;;;;;;;;;;9.86;77.51;99218.69;7353101;19;20445;-67
2023/04/13 02:18:02;;;;;;;;;;;;;;;9.90;78.41;99226.22;7349615;19;20015;-64
2023/04/13 02:20:32;;;;;;;;;;;;;;;9.88;78.37;99229.84;7354623;19;19919;-65
2023/04/13 02:23:00;;;;;;;;;;;;;;;9.87;77.36;99232.66;7355519;19;20644;-63
2023/04/13 02:25:27;;;;;;;;;;;;;;;9.86;77.08;99241.53;7354133;19;19926;-64
2023/04/13 02:27:54;;;;;;;;;;;;;;;9.84;77.25;99238.28;7354907;19;19930;-64
2023/04/13 02:30:21;;;;;;;;;;;;;;;9.83;77.29;99244.53;7355109;19;19957;-65
2023/04/13 02:32:48;;;;;;;;;;;;;;;9.80;77.46;99248.34;7355115;19;20805;-66
2023/04/13 02:35:16;;;;;;;;;;;;;;;9.79;77.00;99249.38;7349536;19;19918;-65
2023/04/13 02:37:44;;;;;;;;;;;;;;;9.80;76.54;99263.31;7355022;19;19914;-65
2023/04/13 02:40:12;;;;;;;;;;;;;;;9.80;76.56;99253.59;7357344;19;19980;-64
2023/04/13 02:42:39;;;;;;;;;;;;;;;9.77;75.42;99261.03;7355365;19;19969;-64
2023/04/13 02:45:06;;;;;;;;;;;;;;;9.76;75.96;99260.22;7354255;19;19915;-64
2023/04/13 02:47:33;;;;;;;;;;;;;;;9.80;76.13;99263.31;7350995;19;20510;-64
2023/04/13 02:50:01;;;;;;;;;;;;;;;9.80;76.54;99266.72;7355269;19;19923;-67
2023/04/13 02:52:28;;;;;;;;;;;;;;;9.77;76.18;99269.75;7355904;19;19946;-64
2023/04/13 02:54:55;;;;;;;;;;;;;;;9.75;75.42;99279.59;7346701;19;19941;-64
2023/04/13 02:57:24;;;;;;;;;;;;;;;9.75;75.33;99276.19;7349979;19;19922;-64
2023/04/13 02:59:51;;;;;;;;;;;;;;;9.75;74.51;99282.22;7355199;19;20337;-64
2023/04/13 03:02:18;;;;;;;;;;;;;;;9.74;74.49;99279.81;7353607;19;19925;-64
2023/04/13 03:04:46;;;;;;;;;;;;;;;9.73;74.17;99286.06;7352127;19;19945;-64
2023/04/13 03:07:13;;;;;;;;;;;;;;;9.72;73.96;99294.94;7352407;19;19922;-66
2023/04/13 03:09:40;;;;;;;;;;;;;;;9.73;74.52;99292.13;7354949;19;19998;-64
2023/04/13 03:12:08;;;;;;;;;;;;;;;9.70;73.99;99304.81;7354024;19;19923;-64
2023/04/13 03:14:35;;;;;;;;;;;;;;;9.66;73.45;99306.16;7353788;19;20329;-64
2023/04/13 03:17:03;;;;;;;;;;;;;;;9.67;74.53;99313.88;7352123;19;20389;-65
2023/04/13 03:19:30;;;;;;;;;;;;;;;9.64;74.66;99314.25;7350875;19;19918;-64
2023/04/13 03:21:57;;;;;;;;;;;;;;;9.64;74.78;99308.19;7353271;19;19986;-65
2023/04/13 03:24:26;;;;;;;;;;;;;;;9.66;76.15;99317.50;7352988;19;19998;-65
2023/04/13 03:26:55;;;;;;;;;;;;;;;9.63;74.74;99323.13;7353957;19;19911;-65
2023/04/13 03:29:23;;;;;;;;;;;;;;;9.62;75.09;99326.75;7352568;19;19926;-64
2023/04/13 03:31:50;;;;;;;;;;;;;;;9.64;75.27;99322.13;7350339;19;19994;-64
2023/04/13 03:34:20;;;;;;;;;;;;;;;9.63;74.92;99327.56;7350383;19;19918;-65
2023/04/13 03:36:47;;;;;;;;;;;;;;;9.62;75.28;99336.44;7351334;19;20844;-65
2023/04/13 03:39:14;;;;;;;;;;;;;;;9.60;75.52;99333.19;7353224;19;19918;-65
2023/04/13 03:41:41;;;;;;;;;;;;;;;9.55;74.15;99343.41;7353969;19;20581;-66
2023/04/13 03:44:08;;;;;;;;;;;;;;;9.52;74.95;99341.97;7352428;19;19927;-65
2023/04/13 03:46:36;;;;;;;;;;;;;;;9.52;74.68;99349.03;7348100;19;19927;-64
2023/04/13 03:49:05;;;;;;;;;;;;;;;9.51;74.85;99360.50;7351206;19;20217;-64
2023/04/13 03:51:32;;;;;;;;;;;;;;;9.50;75.54;99361.53;7347841;19;20013;-65
2023/04/13 03:53:59;;;;;;;;;;;;;;;9.49;74.99;99365.16;7350818;19;19926;-65
2023/04/13 03:56:27;;;;;;;;;;;;;;;9.47;74.14;99361.88;7349402;19;19923;-65
2023/04/13 03:58:54;;;;;;;;;;;;;;;9.48;75.00;99372.22;7349363;19;20216;-64
2023/04/13 04:01:22;;;;;;;;;;;;;;;9.47;75.50;99378.44;7350930;19;19936;-64
2023/04/13 04:03:50;;;;;;;;;;;;;;;9.45;75.54;99378.63;7347791;19;20026;-65
2023/04/13 04:06:17;;;;;;;;;;;;;;;9.43;75.97;99379.81;7348212;19;20317;-65
2023/04/13 04:08:48;;;;;;;;;;;;;;;9.41;75.53;99384.41;7349848;19;19922;-65
2023/04/13 04:11:15;;;;;;;;;;;;;;;9.43;75.12;99387.69;7352978;19;20622;-64
2023/04/13 04:13:42;;;;;;;;;;;;;;;9.43;74.93;99398.19;7353232;19;20018;-63
2023/04/13 04:16:10;;;;;;;;;;;;;;;9.42;74.56;99391.31;7348329;19;19923;-64
2023/04/13 04:18:37;;;;;;;;;;;;;;;9.39;74.09;99391.69;7352245;19;19915;-65
2023/04/13 04:21:05;;;;;;;;;;;;;;;9.36;74.47;99403.34;7348677;19;19974;-63
2023/04/13 04:23:36;;;;;;;;;;;;;;;9.36;75.46;99397.28;7347941;19;19915;-64
2023/04/13 04:26:03;;;;;;;;;;;;;;;9.35;75.15;99401.69;7348574;19;19943;-64
2023/04/13 04:28:37;;;;;;;;;;;;;;;9.35;75.37;99416.63;7352581;19;20318;-65
2023/04/13 04:31:05;;;;;;;;;;;;;;;9.33;74.99;99414.22;7349251;19;20813;-64
2023/04/13 04:33:33;;;;;;;;;;;;;;;9.33;75.67;99423.88;7348876;19;19915;-65
2023/04/13 04:36:00;;;;;;;;;;;;;;;9.30;74.47;99413.72;7351441;19;19947;-64
2023/04/13 04:38:29;;;;;;;;;;;;;;;9.29;75.86;99420.00;7360182;19;19929;-64
2023/04/13 04:40:56;;;;;;;;;;;;;;;9.30;76.45;99424.22;7363136;19;19925;-64
2023/04/13 04:43:25;;;;;;;;;;;;;;;9.30;76.48;99432.09;7357058;19;19958;-63
2023/04/13 04:45:56;;;;;;;;;;;;;;;9.28;75.91;99437.56;7358919;19;19953;-64
2023/04/13 04:48:25;;;;;;;;;;;;;;;9.24;75.88;99428.41;7349347;19;19918;-64
2023/04/13 04:50:54;;;;;;;;;;;;;;;9.26;75.85;99433.47;7358743;19;20011;-63
2023/04/13 04:53:21;;;;;;;;;;;;;;;9.25;76.46;99437.88;7360922;19;19949;-64
2023/04/13 04:55:49;;;;;;;;;;;;;;;9.22;76.49;99433.00;7358358;19;19956;-64
2023/04/13 04:58:17;;;;;;;;;;;;;;;9.21;76.37;99444.50;7353655;19;19915;-65
2023/04/13 05:00:45;;;;;;;;;;;;;;;9.20;76.09;99450.72;7360119;19;19934;-65
2023/04/13 05:03:12;;;;;;;;;;;;;;;9.21;76.92;99456.81;7358681;19;19919;-64
2023/04/13 05:05:39;;;;;;;;;;;;;;;9.23;76.63;99473.19;7356066;19;20219;-64
2023/04/13 05:08:07;;;;;;;;;;;;;;;9.25;76.09;99465.94;7358488;19;20383;-64
2023/04/13 05:10:34;;;;;;;;;;;;;;;9.24;75.77;99465.16;7360324;19;20300;-63
2023/04/13 05:13:01;;;;;;;;;;;;;;;9.21;75.48;99462.88;7359948;19;19935;-65
2023/04/13 05:15:28;;;;;;;;;;;;;;;9.22;75.73;99476.81;7364404;19;19914;-64
2023/04/13 05:17:56;;;;;;;;;;;;;;;9.18;75.57;99475.53;7358724;19;19923;-64
2023/04/13 05:20:23;;;;;;;;;;;;;;;9.16;75.49;99470.44;7360368;19;19914;-64
2023/04/13 05:22:50;;;;;;;;;;;;;;;9.16;76.82;99478.31;7362287;19;19929;-65
2023/04/13 05:25:17;;;;;;;;;;;;;;;9.14;76.23;99490.00;7366428;19;20015;-66
2023/04/13 05:27:44;;;;;;;;;;;;;;;9.12;76.27;99487.56;7359861;19;20615;-65
2023/04/13 05:30:12;;;;;;;;;;;;;;;9.17;76.62;99489.63;7361116;19;19919;-65
2023/04/13 05:32:39;;;;;;;;;;;;;;;9.16;76.11;99486.19;7360411;19;19923;-65
2023/04/13 05:35:06;;;;;;;;;;;;;;;9.16;76.06;99485.38;7362941;19;19983;-65
2023/04/13 05:37:33;;;;;;;;;;;;;;;9.18;76.98;99480.78;7362494;19;19915;-64
2023/04/13 05:40:07;;;;;;;;;;;;;;;9.18;76.27;99492.09;7363203;19;19950;-65
2023/04/13 05:42:34;;;;;;;;;;;;;;;9.18;76.37;99493.91;7362994;19;20253;-64
2023/04/13 05:45:02;;;;;;;;;;;;;;;9.18;75.93;99501.78;7365040;19;20325;-65
2023/04/13 05:47:29;;;;;;;;;;;;;;;9.18;75.52;99504.41;7360434;19;19923;-64
2023/04/13 05:49:59;;;;;;;;;;;;;;;9.18;75.75;99514.91;7362451;19;19929;-65
2023/04/13 05:52:26;;;;;;;;;;;;;;;9.18;75.56;99507.84;7359475;19;19922;-64
2023/04/13 05:54:53;;;;;;;;;;;;;;;9.18;75.82;99514.91;7363808;19;19978;-63
2023/04/13 05:57:20;;;;;;;;;;;;;;;9.22;75.97;99518.78;7365405;19;21318;-65
2023/04/13 05:59:49;;;;;;;;;;;;;;;9.23;75.17;99521.25;7359346;19;19915;-65
2023/04/13 06:02:16;;;;;;;;;;;;;;;9.27;75.39;99526.94;7361154;19;19936;-65
2023/04/13 06:04:44;;;;;;;;;;;;;;;9.25;75.00;99535.00;7357410;19;19919;-65
2023/04/13 06:07:15;;;;;;;;;;;;;;;9.27;74.70;99533.03;7363700;19;19958;-65
2023/04/13 06:09:42;;;;;;;;;;;;;;;9.28;75.21;99525.97;7362480;19;20027;-65
2023/04/13 06:12:09;;;;;;;;;;;;;;;9.29;75.28;99536.28;7359727;19;19918;-65
2023/04/13 06:14:36;;;;;;;;;;;;;;;9.32;75.41;99549.06;7362096;19;20207;-64
2023/04/13 06:17:03;;;;;;;;;;;;;;;9.38;75.74;99543.09;7360074;19;19978;-64
2023/04/13 06:19:30;;;;;;;;;;;;;;;9.45;75.24;99548.44;7359211;19;19923;-64
2023/04/13 06:21:58;;;;;;;;;;;;;;;9.52;75.15;99561.69;7358717;19;19935;-65
2023/04/13 06:24:26;;;;;;;;;;;;;;;9.53;74.62;99558.88;7362235;19;20350;-65
2023/04/13 06:26:53;;;;;;;;;;;;;;;9.53;74.20;99558.88;7360828;19;19923;-65
2023/04/13 06:29:20;;;;;;;;;;;;;;;9.55;74.23;99556.09;7360336;19;20415;-65
2023/04/13 06:31:47;;;;;;;;;;;;;;;9.61;74.55;99561.44;7358163;19;19923;-65
2023/04/13 06:34:15;;;;;;;;;;;;;;;9.65;74.25;99572.41;7358181;19;19922;-67
2023/04/13 06:36:41;;;;;;;;;;;;;;;9.66;73.67;99576.66;7357526;19;19940;-64
2023/04/13 06:39:09;;;;;;;;;;;;;;;9.70;73.87;99575.31;7362134;19;19939;-64
2023/04/13 06:41:36;;;;;;;;;;;;;;;9.74;73.77;99580.03;7360717;19;20523;-64
2023/04/13 06:44:03;;;;;;;;;;;;;;;9.91;73.34;99572.78;7361585;19;19922;-64
2023/04/13 06:46:30;;;;;;;;;;;;;;;10.18;73.26;99580.09;7356059;19;20321;-65
2023/04/13 06:48:57;;;;;;;;;;;;;;;10.65;71.29;99584.16;7354134;19;19919;-64
2023/04/13 06:51:25;;;;;;;;;;;;;;;11.19;69.39;99588.97;7358610;19;19926;-65
2023/04/13 06:53:53;;;;;;;;;;;;;;;11.59;67.56;99599.69;7359357;19;20599;-66
2023/04/13 06:56:20;;;;;;;;;;;;;;;11.68;65.55;99608.31;7360159;19;19940;-64
2023/04/13 06:58:47;;;;;;;;;;;;;;;11.96;64.45;99614.44;7359030;19;19951;-65
2023/04/13 07:01:15;;;;;;;;;;;;;;;12.66;63.59;99604.66;7356257;19;20037;-65
2023/04/13 07:03:43;;;;;;;;;;;;;;;13.03;60.28;99619.25;7358509;19;19982;-66
2023/04/13 07:06:10;;;;;;;;;;;;;;;13.21;60.27;99619.50;7358494;19;19926;-64
2023/04/13 07:08:37;;;;;;;;;;;;;;;13.17;58.65;99620.94;7362340;19;19998;-66
2023/04/13 07:11:04;;;;;;;;;;;;;;;13.17;59.00;99621.75;7360408;19;20929;-64
2023/04/13 07:13:31;;;;;;;;;;;;;;;13.54;57.93;99623.03;7361056;19;19919;-65
2023/04/13 07:15:59;;;;;;;;;;;;;;;13.90;57.26;99635.06;7358503;19;20224;-63
2023/04/13 07:18:26;;;;;;;;;;;;;;;14.01;55.61;99645.03;7359947;19;20475;-64
2023/04/13 07:20:53;;;;;;;;;;;;;;;13.75;56.37;99639.72;7356254;19;19919;-65
2023/04/13 07:23:20;;;;;;;;;;;;;;;13.42;57.08;99647.59;7357747;19;19998;-65
2023/04/13 07:25:47;;;;;;;;;;;;;;;13.46;57.70;99638.28;7358508;19;19933;-65
2023/04/13 07:28:15;;;;;;;;;;;;;;;14.31;55.93;99653.34;7360598;19;19918;-65
2023/04/13 07:30:42;;;;;;;;;;;;;;;15.21;53.69;99658.56;7355675;19;20662;-64
2023/04/13 07:33:09;;;;;;;;;;;;;;;15.56;50.73;99661.66;7356422;19;19952;-65
2023/04/13 07:35:37;;;;;;;;;;;;;;;15.23;51.63;99661.81;7356149;19;19943;-65
2023/04/13 07:38:05;;;;;;;;;;;;;;;15.01;52.57;99667.63;7359580;19;21192;-64
2023/04/13 07:40:32;;;;;;;;;;;;;;;15.34;51.68;99668.25;7357110;19;19923;-65
2023/04/13 07:42:59;;;;;;;;;;;;;;;15.59;51.54;99669.19;7357122;19;19954;-65
2023/04/13 07:45:32;;;;;;;;;;;;;;;16.21;48.60;99668.28;7359334;19;20515;-64
2023/04/13 07:47:59;;;;;;;;;;;;;;;16.61;47.71;99667.91;7356901;19;20570;-65
2023/04/13 07:50:27;;;;;;;;;;;;;;;16.74;47.17;99672.28;7358491;19;20589;-65
2023/04/13 07:52:54;;;;;;;;;;;;;;;17.43;46.14;99671.81;7357182;19;19922;-64
2023/04/13 07:55:21;;;;;;;;;;;;;;;17.84;43.03;99681.69;7358191;19;19923;-66
2023/04/13 07:57:50;;;;;;;;;;;;;;;18.03;42.69;99696.53;7358147;19;19922;-66
2023/04/13 08:00:19;;;;;;;;;;;;;;;17.63;43.80;99695.50;7355857;19;19923;-66
2023/04/13 08:02:46;;;;;;;;;;;;;;;17.36;45.02;99689.72;7356818;19;19960;-65
2023/04/13 08:05:17;;;;;;;;;;;;;;;17.17;44.60;99690.81;7358649;19;20007;-66
2023/04/13 08:07:47;;;;;;;;;;;;;;;17.41;45.15;99696.00;7354932;19;19923;-64
2023/04/13 08:10:16;;;;;;;;;;;;;;;17.61;43.93;99703.75;7356159;19;19953;-64
2023/04/13 08:12:43;;;;;;;;;;;;;;;17.53;43.70;99693.38;7362543;19;20370;-65
2023/04/13 08:15:11;;;;;;;;;;;;;;;17.61;45.26;99700.25;7365150;19;20560;-64
2023/04/13 08:17:38;;;;;;;;;;;;;;;17.40;44.75;99694.38;7361104;19;19922;-65
2023/04/13 08:20:07;;;;;;;;;;;;;;;16.85;45.16;99698.94;7363720;19;19918;-65
2023/04/13 08:22:35;;;;;;;;;;;;;;;16.19;46.55;99690.78;7361926;19;19926;-65
2023/04/13 08:25:04;;;;;;;;;;;;;;;15.54;47.39;99700.84;7366433;19;19919;-64
2023/04/13 08:27:31;;;;;;;;;;;;;;;14.99;49.15;99708.38;7360218;19;19915;-65
2023/04/13 08:30:00;;;;;;;;;;;;;;;14.55;50.83;99703.00;7362273;19;19926;-64
2023/04/13 08:32:28;;;;;;;;;;;;;;;14.23;52.27;99706.44;7362192;19;19933;-66
2023/04/13 08:34:55;;;;;;;;;;;;;;;14.04;52.00;99705.44;7362483;19;19969;-64
2023/04/13 08:37:23;;;;;;;;;;;;;;;13.84;52.66;99708.06;7362649;19;19918;-64
2023/04/13 08:39:55;;;;;;;;;;;;;;;13.69;53.84;99713.53;7364569;19;19911;-65
2023/04/13 08:42:22;;;;;;;;;;;;;;;13.57;54.67;99717.78;7360746;19;19923;-65
2023/04/13 08:44:56;;;;;;;;;;;;;;;13.50;55.52;99719.59;7365004;19;20295;-65
2023/04/13 08:47:25;;;;;;;;;;;;;;;13.47;54.98;99724.44;7363692;19;21083;-65
2023/04/13 08:49:55;;;;;;;;;;;;;;;13.40;54.59;99711.25;7363997;19;19991;-64
2023/04/13 08:52:22;;;;;;;;;;;;;;;13.35;55.12;99724.22;7362980;19;19937;-64
2023/04/13 08:54:50;;;;;;;;;;;;;;;13.29;54.56;99717.09;7362589;19;20039;-64
2023/04/13 08:57:18;;;;;;;;;;;;;;;13.25;56.18;99719.31;7361177;19;19983;-64
2023/04/13 08:59:46;;;;;;;;;;;;;;;13.23;55.25;99726.63;7360816;19;19922;-65
2023/04/13 09:02:14;;;;;;;;;;;;;;;13.17;54.23;99727.41;7363002;19;20200;-64
2023/04/13 09:04:43;;;;;;;;;;;;;;;13.12;54.30;99731.63;7360478;19;19926;-65
2023/04/13 09:07:11;;;;;;;;;;;;;;;13.12;54.71;99724.53;7363717;19;19914;-65
2023/04/13 09:09:41;;;;;;;;;;;;;;;13.16;55.22;99722.31;7363528;19;20335;-64
2023/04/13 09:12:08;;;;;;;;;;;;;;;13.22;55.41;99726.81;7362562;19;20019;-64
2023/04/13 09:14:37;;;;;;;;;;;;;;;13.27;55.12;99735.78;7366489;19;21506;-63
2023/04/13 09:17:04;;;;;;;;;;;;;;;13.30;55.53;99737.22;7366024;19;19929;-64
2023/04/13 09:19:36;;;;;;;;;;;;;;;13.44;55.17;99743.34;7358701;19;20011;-65
2023/04/13 09:22:14;;;;;;;;;;;;;;;13.45;52.95;99748.44;7363071;19;20544;-66
2023/04/13 09:24:42;;;;;;;;;;;;;;;13.51;55.61;99749.50;7362062;19;19923;-64
2023/04/13 09:27:19;;;;;;;;;;;;;;;13.59;55.20;99758.06;7362670;19;20269;-64
2023/04/13 09:29:47;;;;;;;;;;;;;;;13.70;53.27;99751.38;7362400;19;20369;-64
2023/04/13 09:32:18;;;;;;;;;;;;;;;13.72;53.12;99767.84;7358607;19;19921;-64
2023/04/13 09:34:56;;;;;;;;;;;;;;;13.75;53.71;99753.41;7363079;19;19919;-65
2023/04/13 09:37:23;;;;;;;;;;;;;;;13.82;52.25;99756.88;7360214;19;19915;-64
2023/04/13 09:39:51;;;;;;;;;;;;;;;13.82;51.52;99759.50;7366254;19;20274;-64
2023/04/13 09:42:19;;;;;;;;;;;;;;;13.76;50.19;99758.50;7364257;19;20470;-65
2023/04/13 09:44:55;;;;;;;;;;;;;;;13.75;50.37;99750.78;7363522;19;19923;-64
2023/04/13 09:47:23;;;;;;;;;;;;;;;13.74;52.03;99757.88;7362646;19;19914;-65
2023/04/13 09:49:51;;;;;;;;;;;;;;;13.82;51.42;99762.97;7363118;19;19922;-66
2023/04/13 09:52:19;;;;;;;;;;;;;;;13.80;48.46;99756.28;7361545;19;19941;-67
2023/04/13 09:54:50;;;;;;;;;;;;;;;13.81;49.94;99756.09;7360237;19;19910;-64
2023/04/13 09:57:27;;;;;;;;;;;;;;;13.89;48.90;99770.94;7363418;19;20491;-65
2023/04/13 09:59:55;;;;;;;;;;;;;;;13.94;49.92;99763.22;7359037;19;19918;-65
2023/04/13 10:02:22;;;;;;;;;;;;;;;14.04;50.21;99777.69;7358424;19;20903;-65
2023/04/13 10:04:50;;;;;;;;;;;;;;;14.03;47.23;99775.22;7357687;19;19995;-65
2023/04/13 10:07:18;;;;;;;;;;;;;;;14.06;48.01;99773.00;7358985;19;20559;-65
2023/04/13 10:09:45;;;;;;;;;;;;;;;14.06;46.50;99772.19;7361033;19;19930;-65
2023/04/13 10:12:15;;;;;;;;;;;;;;;14.06;47.14;99778.31;7361196;19;19930;-64
2023/04/13 10:14:44;;;;;;;;;;;;;;;14.02;46.57;99781.53;7359793;19;19922;-65
2023/04/13 10:17:21;;;;;;;;;;;;;;;13.95;44.65;99791.28;7360031;19;19923;-66
2023/04/13 10:19:50;;;;;;;;;;;;;;;13.92;44.37;99781.91;7359771;19;21091;-64
2023/04/13 10:22:19;;;;;;;;;;;;;;;13.90;46.27;99786.59;7358991;19;19922;-65
2023/04/13 10:24:46;;;;;;;;;;;;;;;13.92;45.96;99789.84;7361130;19;19926;-64
2023/04/13 10:27:15;;;;;;;;;;;;;;;13.96;44.27;99788.47;7355820;19;19938;-65
2023/04/13 10:29:42;;;;;;;;;;;;;;;14.00;44.94;99791.50;7362617;19;19922;-65
2023/04/13 10:32:19;;;;;;;;;;;;;;;14.08;45.00;99789.47;7356138;19;20169;-65
2023/04/13 10:34:46;;;;;;;;;;;;;;;14.20;43.84;99808.22;7358113;19;19918;-67
2023/04/13 10:37:18;;;;;;;;;;;;;;;14.26;43.41;99810.06;7356467;19;19919;-65
2023/04/13 10:39:45;;;;;;;;;;;;;;;14.27;43.06;99795.84;7361456;19;19994;-66
2023/04/13 10:42:12;;;;;;;;;;;;;;;14.27;44.99;99800.31;7361091;19;19940;-65
2023/04/13 10:44:44;;;;;;;;;;;;;;;14.27;44.08;99790.53;7359597;19;19931;-66
2023/04/13 10:47:12;;;;;;;;;;;;;;;14.30;43.14;99799.88;7358480;19;19919;-67
2023/04/13 10:49:40;;;;;;;;;;;;;;;14.33;44.30;99807.41;7359335;19;20211;-66
2023/04/13 10:52:09;;;;;;;;;;;;;;;14.32;42.34;99805.81;7362207;19;20010;-65
2023/04/13 10:54:38;;;;;;;;;;;;;;;14.34;43.09;99809.88;7359724;19;19922;-66
2023/04/13 10:57:07;;;;;;;;;;;;;;;14.36;43.47;99810.53;7360947;19;19923;-65
2023/04/13 10:59:36;;;;;;;;;;;;;;;14.32;43.22;99803.16;7358745;19;20330;-67
2023/04/13 11:02:23;;;;;;;;;;;;;;;14.26;42.52;99814.53;7357316;19;19918;-66
2023/04/13 11:04:51;;;;;;;;;;;;;;;14.20;42.44;99808.22;7358642;19;19919;-66
2023/04/13 11:07:22;;;;;;;;;;;;;;;14.13;41.81;99807.38;7360195;19;20383;-65
2023/04/13 11:09:50;;;;;;;;;;;;;;;14.16;41.86;99807.00;7362149;19;20252;-68
2023/04/13 11:12:18;;;;;;;;;;;;;;;14.19;39.76;99811.06;7361849;19;19922;-65
2023/04/13 11:14:45;;;;;;;;;;;;;;;14.26;41.47;99801.31;7361961;19;19931;-67
2023/04/13 11:17:13;;;;;;;;;;;;;;;14.27;42.40;99803.78;7358390;19;19947;-65
2023/04/13 11:19:51;;;;;;;;;;;;;;;14.32;42.05;99813.75;7355397;19;20324;-65
2023/04/13 11:22:21;;;;;;;;;;;;;;;14.34;42.21;99803.75;7358684;19;21737;-65
2023/04/13 11:24:49;;;;;;;;;;;;;;;14.32;42.54;99803.97;7357893;19;19949;-66
2023/04/13 11:27:17;;;;;;;;;;;;;;;14.32;42.58;99805.81;7357031;19;19919;-66
2023/04/13 11:29:44;;;;;;;;;;;;;;;14.36;42.43;99809.66;7359547;19;19929;-66
2023/04/13 11:32:17;;;;;;;;;;;;;;;14.42;42.24;99815.00;7355142;19;20367;-66
2023/04/13 11:34:46;;;;;;;;;;;;;;;14.49;42.46;99797.28;7355541;19;20531;-67
2023/04/13 11:37:13;;;;;;;;;;;;;;;14.58;42.65;99797.88;7358596;19;20528;-67
2023/04/13 11:39:42;;;;;;;;;;;;;;;14.60;43.45;99808.28;7362376;19;19963;-62
2023/04/13 11:42:10;;;;;;;;;;;;;;;14.56;41.30;99807.88;7359501;19;20335;-60
2023/04/13 11:44:38;;;;;;;;;;;;;;;14.59;40.21;99810.09;7363049;19;19957;-61
2023/04/13 11:47:07;;;;;;;;;;;;;;;14.63;40.61;99806.03;7359556;19;19925;-60
2023/04/13 11:49:34;;;;;;;;;;;;;;;14.60;40.04;99811.75;7358399;19;19960;-62
2023/04/13 11:52:02;;;;;;;;;;;;;;;14.61;41.07;99813.38;7359562;19;20288;-61
2023/04/13 11:54:29;;;;;;;;;;;;;;;14.67;38.91;99811.75;7357844;19;20525;-62
2023/04/13 11:56:56;;;;;;;;;;;;;;;14.73;38.78;99798.47;7358825;19;19922;-63
2023/04/13 11:59:24;;;;;;;;;;;;;;;14.79;38.70;99795.03;7359352;19;19919;-61
2023/04/13 12:01:51;;;;;;;;;;;;;;;14.88;39.26;99808.88;7357731;19;19922;-61
2023/04/13 12:04:35;;;;;;;;;;;;;;;14.87;38.77;99810.72;7354639;19;19964;-63
2023/04/13 12:07:07;;;;;;;;;;;;;;;14.78;38.10;99811.13;7357709;19;19926;-63
2023/04/13 12:09:44;;;;;;;;;;;;;;;14.76;39.66;99816.63;7360664;19;19949;-61
2023/04/13 12:12:18;;;;;;;;;;;;;;;14.74;40.54;99816.00;7354557;19;19953;-62
2023/04/13 12:14:56;;;;;;;;;;;;;;;14.70;40.70;99819.28;7356591;19;19938;-62
2023/04/13 12:17:51;;;;;;;;;;;;;;;14.61;41.24;99821.31;7355404;19;19911;-62
2023/04/13 12:20:22;;;;;;;;;;;;;;;14.52;41.66;99817.25;7356041;19;19915;-61
2023/04/13 12:22:51;;;;;;;;;;;;;;;14.47;40.95;99819.69;7354751;19;20368;-60
2023/04/13 12:25:32;;;;;;;;;;;;;;;14.46;41.06;99823.34;7355866;19;19919;-61
2023/04/13 12:28:02;;;;;;;;;;;;;;;14.54;42.19;99810.72;7355751;19;19922;-62
2023/04/13 12:30:29;;;;;;;;;;;;;;;14.70;44.95;99825.38;7357230;19;20359;-60
2023/04/13 12:32:56;;;;;;;;;;;;;;;14.73;45.31;99817.03;7352983;19;20283;-62
2023/04/13 12:35:23;;;;;;;;;;;;;;;14.65;44.82;99811.94;7357669;19;19915;-63
2023/04/13 12:37:51;;;;;;;;;;;;;;;14.64;45.01;99812.97;7357422;19;19931;-62
2023/04/13 12:40:18;;;;;;;;;;;;;;;14.59;44.65;99811.94;7354707;19;20352;-61
2023/04/13 12:42:45;;;;;;;;;;;;;;;14.55;44.89;99808.88;7358120;19;19931;-62
2023/04/13 12:45:13;;;;;;;;;;;;;;;14.59;43.91;99815.41;7355899;19;19943;-62
2023/04/13 12:47:41;;;;;;;;;;;;;;;14.56;44.89;99823.75;7354798;19;20407;-63
2023/04/13 12:50:09;;;;;;;;;;;;;;;14.45;43.84;99829.66;7357182;19;19930;-61
2023/04/13 12:52:37;;;;;;;;;;;;;;;14.39;44.90;99835.75;7355443;19;20387;-62
2023/04/13 12:55:05;;;;;;;;;;;;;;;14.42;45.61;99822.94;7356430;19;20521;-60
2023/04/13 12:57:32;;;;;;;;;;;;;;;14.48;45.34;99826.59;7361845;19;19915;-61